Imperatriz, Brazil
Current Conditions -  °F | °C
As of 6:00 AM on Saturday 25 Oct 2014 (Local Time) from SKLT Reporting Station
Moderate Fog Moderate Fog  
Wind Chill: 75°   Ceiling: Unl
Heat Index: 75°   Visibility: 0.12mi
Dew Point: 73°   Wind: 0mph
Humidity: 94%   Direction: NA
Pressure: 29.82"   Gusts: NA
Location:  5.3°S, 67.18°W
Report Text: SKLT 251000Z 00000KT 0200 FG SCT008 24/23 A2982 RMK AD BLW MNM MET
Loading
Personal Weather Stations






























Interactive Weather Map
Tropical Storm Tracking
New forecast layout! Learn more

10-Day Weather Forecast

Advertisements
Track Severe Weather on mobile